Studio City, California
Current Conditions -  °F | °C
As of 8:53 AM on Thursday 27 Nov 2014 (Local Time) from KBUR Reporting Station
Clear Clear  
Wind Chill: 66°   Ceiling: Unl
Heat Index: 66°   Visibility: 10mi
Dew Point: 29°   Wind: 0mph
Humidity: 25%   Direction: NA
Pressure: 30.14"   Gusts: NA
Location:  34.15°N, 118.4°W
Report Text: KBUR 271653Z 00000KT 10SM CLR 19/M02 A3014 RMK AO2 SLP195 T01891017
Loading
Personal Weather Stations






























Interactive Weather Map New forecast layout! Learn more

10-Day Weather Forecast

Advertisements
Track Severe Weather on mobile